Time;durP1;ratioP1;P1;durP2;ratioP2;P2;SDS_P1;SDS_P2;PMS_P1;PMS_P2;Temp;Humidity;BMP_temperature;BMP_pressure;BME280_temperature;BME280_humidity;BME280_pressure;Samples;Min_cycle;Max_cycle;Signal;HPM_P1;HPM_P2
2023/04/12 00:01:33;;;;;;;3.33;2.20;;;5.30;60.40;;;;;;5009949;28;20486;-64
2023/04/12 00:04:01;;;;;;;4.27;2.20;;;5.30;64.80;;;;;;5014463;28;20220;-64
2023/04/12 00:06:31;;;;;;;7.90;3.00;;;5.30;65.80;;;;;;5000197;28;20643;-64
2023/04/12 00:08:58;;;;;;;7.03;2.67;;;5.30;69.50;;;;;;5013458;28;20204;-64
2023/04/12 00:11:26;;;;;;;8.33;2.40;;;5.40;69.30;;;;;;4991813;28;20327;-64
2023/04/12 00:13:55;;;;;;;5.57;2.50;;;5.40;69.40;;;;;;5019359;28;20415;-64
2023/04/12 00:16:22;;;;;;;3.30;2.27;;;;;;;;;;5026212;28;20212;-64
2023/04/12 00:18:50;;;;;;;7.80;3.00;;;5.50;67.50;;;;;;5024633;28;20224;-64
2023/04/12 00:21:18;;;;;;;5.33;2.43;;;5.50;66.90;;;;;;5010069;28;20215;-64
2023/04/12 00:23:45;;;;;;;4.37;2.07;;;5.60;64.80;;;;;;5015449;28;20515;-64
2023/04/12 00:26:13;;;;;;;8.13;3.10;;;5.50;64.30;;;;;;5024584;28;20194;-64
2023/04/12 00:28:40;;;;;;;5.93;2.50;;;5.50;63.70;;;;;;4976511;28;20295;-64
2023/04/12 00:31:08;;;;;;;4.33;2.40;;;5.50;63.00;;;;;;5024694;28;20208;-64
2023/04/12 00:33:36;;;;;;;4.67;2.30;;;5.50;61.50;;;;;;5028339;28;20202;-64
2023/04/12 00:36:03;;;;;;;7.60;2.70;;;5.50;59.10;;;;;;5007236;28;20291;-64
2023/04/12 00:38:30;;;;;;;9.37;2.40;;;5.50;58.90;;;;;;5006180;28;20439;-64
2023/04/12 00:40:57;;;;;;;2.97;2.17;;;5.60;57.50;;;;;;5023433;28;20197;-64
2023/04/12 00:43:26;;;;;;;8.13;2.50;;;5.60;54.40;;;;;;4997040;28;20233;-64
2023/04/12 00:45:54;;;;;;;7.13;2.77;;;5.60;54.30;;;;;;5027294;28;20245;-64
2023/04/12 00:48:23;;;;;;;3.23;1.70;;;5.60;55.00;;;;;;5024556;28;20209;-64
2023/04/12 00:50:54;;;;;;;3.73;2.40;;;5.60;52.40;;;;;;5010214;28;20219;-64
2023/04/12 00:53:21;;;;;;;6.93;1.83;;;5.70;51.20;;;;;;5024634;28;20221;-64
2023/04/12 00:55:50;;;;;;;5.53;2.40;;;5.70;47.00;;;;;;5020571;28;20206;-64
2023/04/12 00:58:17;;;;;;;3.30;2.03;;;5.80;41.00;;;;;;5029149;28;21049;-64
2023/04/12 01:00:48;;;;;;;3.63;1.77;;;5.80;38.00;;;;;;4995030;28;20801;-63
2023/04/12 01:03:21;;;;;;;3.07;2.07;;;5.80;36.50;;;;;;5026582;28;20222;-64
2023/04/12 01:05:59;;;;;;;5.13;2.20;;;5.80;35.70;;;;;;5010866;28;20238;-64
2023/04/12 01:08:34;;;;;;;3.20;1.87;;;5.80;28.90;;;;;;5020219;28;20909;-64
2023/04/12 01:11:08;;;;;;;2.17;1.63;;;5.80;27.80;;;;;;5017175;28;20215;-64
2023/04/12 01:13:41;;;;;;;4.03;2.10;;;5.90;24.80;;;;;;5024291;28;20446;-64
2023/04/12 01:16:13;;;;;;;4.60;2.07;;;5.90;24.10;;;;;;4993191;28;20210;-64
2023/04/12 01:18:49;;;;;;;2.97;2.03;;;5.90;24.30;;;;;;5023553;28;20592;-64
2023/04/12 01:21:35;;;;;;;5.20;1.93;;;5.90;18.20;;;;;;5014581;28;20197;-64
2023/04/12 01:24:20;;;;;;;6.00;2.27;;;5.80;18.70;;;;;;5022653;28;20196;-64
2023/04/12 01:26:48;;;;;;;7.33;2.57;;;5.90;13.60;;;;;;5008493;28;20350;-64
2023/04/12 01:29:19;;;;;;;10.83;2.27;;;5.90;9.10;;;;;;5020869;28;20315;-64
2023/04/12 01:31:53;;;;;;;4.13;1.93;;;6.00;7.90;;;;;;4990914;28;20219;-64
2023/04/12 01:34:21;;;;;;;6.07;2.23;;;6.00;6.60;;;;;;5020615;28;20673;-64
2023/04/12 01:36:50;;;;;;;7.40;2.67;;;5.90;6.20;;;;;;5004982;28;20289;-64
2023/04/12 01:39:17;;;;;;;2.87;1.77;;;6.00;3.90;;;;;;5015706;28;20224;-64
2023/04/12 01:41:47;;;;;;;7.20;2.40;;;5.90;3.70;;;;;;5012039;28;20282;-64
2023/04/12 01:44:16;;;;;;;6.63;2.00;;;5.90;1.00;;;;;;5023340;28;20200;-64
2023/04/12 01:46:45;;;;;;;4.43;2.00;;;6.00;2.10;;;;;;5017864;28;20228;-64
2023/04/12 01:49:12;;;;;;;5.20;1.77;;;6.00;1.00;;;;;;4986888;28;20219;-64
2023/04/12 01:51:49;;;;;;;5.17;1.97;;;6.00;1.00;;;;;;5004237;28;20435;-64
2023/04/12 01:54:22;;;;;;;4.20;1.80;;;6.10;1.00;;;;;;4994099;28;20204;-64
2023/04/12 01:56:54;;;;;;;2.63;1.80;;;6.00;1.00;;;;;;5017192;28;20204;-64
2023/04/12 01:59:26;;;;;;;9.80;2.20;;;6.00;1.00;;;;;;5001631;28;20357;-64
2023/04/12 02:01:53;;;;;;;4.27;1.90;;;6.00;1.00;;;;;;5019171;28;20204;-64
2023/04/12 02:04:21;;;;;;;4.53;2.07;;;6.00;1.00;;;;;;4985659;28;20926;-64
2023/04/12 02:06:48;;;;;;;4.67;1.97;;;6.00;1.00;;;;;;5016267;28;20256;-64
2023/04/12 02:09:15;;;;;;;4.47;2.13;;;6.00;1.00;;;;;;5004128;28;20397;-64
2023/04/12 02:11:47;;;;;;;6.33;2.00;;;6.10;1.00;;;;;;5020261;28;20203;-64
2023/04/12 02:14:15;;;;;;;3.50;1.80;;;6.00;1.00;;;;;;5006486;28;20935;-64
2023/04/12 02:16:44;;;;;;;2.83;1.60;;;6.00;1.00;;;;;;5001126;28;21064;-64
2023/04/12 02:19:11;;;;;;;4.70;1.93;;;6.00;1.00;;;;;;4982520;28;20965;-64
2023/04/12 02:21:41;;;;;;;4.60;1.70;;;6.00;1.00;;;;;;5014815;28;20205;-64
2023/04/12 02:24:09;;;;;;;5.77;2.40;;;6.00;1.00;;;;;;5000032;28;20505;-64
2023/04/12 02:26:36;;;;;;;3.47;1.93;;;6.00;1.00;;;;;;5021495;28;20200;-63
2023/04/12 02:29:03;;;;;;;2.53;1.63;;;6.00;1.00;;;;;;5001721;28;20587;-64
2023/04/12 02:31:30;;;;;;;5.63;2.13;;;6.00;1.00;;;;;;5006243;28;20311;-64
2023/04/12 02:33:58;;;;;;;3.53;1.47;;;6.00;1.00;;;;;;5000219;28;20201;-64
2023/04/12 02:36:25;;;;;;;7.40;1.80;;;6.00;1.00;;;;;;5013727;28;20216;-64
2023/04/12 02:38:53;;;;;;;7.17;2.03;;;6.10;1.00;;;;;;5005315;28;20231;-64
2023/04/12 02:41:20;;;;;;;3.30;1.70;;;6.10;1.00;;;;;;5018075;28;20487;-64
2023/04/12 02:43:47;;;;;;;4.17;1.67;;;6.20;1.00;;;;;;5014219;28;20209;-64
2023/04/12 02:46:20;;;;;;;6.23;2.00;;;6.20;1.00;;;;;;4996029;28;20225;-64
2023/04/12 02:48:47;;;;;;;4.93;2.20;;;6.30;1.00;;;;;;5018672;28;20246;-64
2023/04/12 02:51:15;;;;;;;4.90;1.93;;;6.30;1.00;;;;;;4989350;28;20443;-64
2023/04/12 02:53:42;;;;;;;5.53;1.97;;;6.40;1.00;;;;;;5008024;28;20207;-64
2023/04/12 02:56:10;;;;;;;4.93;2.00;;;6.30;1.00;;;;;;5022778;28;20201;-64
2023/04/12 02:58:38;;;;;;;3.93;1.60;;;6.30;1.00;;;;;;5028083;28;20194;-64
2023/04/12 03:01:06;;;;;;;6.53;2.10;;;6.30;1.00;;;;;;5001518;28;20210;-64
2023/04/12 03:03:33;;;;;;;1.70;1.60;;;6.30;1.00;;;;;;5013803;28;20780;-64
2023/04/12 03:06:00;;;;;;;5.43;1.80;;;6.40;1.00;;;;;;4996766;28;20302;-64
2023/04/12 03:08:28;;;;;;;4.30;2.10;;;6.40;1.00;;;;;;5023053;28;20286;-64
2023/04/12 03:10:55;;;;;;;3.67;1.50;;;6.40;1.00;;;;;;5003735;28;20212;-64
2023/04/12 03:13:22;;;;;;;3.63;1.70;;;6.30;1.00;;;;;;5028534;28;20411;-64
2023/04/12 03:15:49;;;;;;;6.40;2.10;;;6.30;1.00;;;;;;5010580;28;20288;-64
2023/04/12 03:18:19;;;;;;;4.37;2.57;;;6.20;1.00;;;;;;4994893;28;20543;-64
2023/04/12 03:20:47;;;;;;;4.30;1.83;;;6.20;1.00;;;;;;5021098;28;20233;-64
2023/04/12 03:23:14;;;;;;;7.10;2.30;;;6.30;1.00;;;;;;4987470;28;20401;-64
2023/04/12 03:25:43;;;;;;;3.43;1.80;;;6.10;1.00;;;;;;5004466;28;20675;-64
2023/04/12 03:28:09;;;;;;;7.07;2.07;;;6.10;1.00;;;;;;5019493;28;20216;-64
2023/04/12 03:30:36;;;;;;;3.93;1.87;;;6.10;1.00;;;;;;5007510;28;20204;-64
2023/04/12 03:33:03;;;;;;;5.23;1.83;;;6.20;1.00;;;;;;4993217;28;20208;-64
2023/04/12 03:35:30;;;;;;;8.97;2.30;;;6.20;1.00;;;;;;5017370;28;20204;-63
2023/04/12 03:37:57;;;;;;;4.20;2.00;;;6.20;1.00;;;;;;4985851;28;20710;-64
2023/04/12 03:40:24;;;;;;;4.73;1.90;;;6.20;1.00;;;;;;5003321;28;20832;-64
2023/04/12 03:42:52;;;;;;;6.37;2.27;;;6.30;1.00;;;;;;5011247;28;20201;-63
2023/04/12 03:45:19;;;;;;;6.17;2.10;;;6.20;1.00;;;;;;5008536;28;20661;-64
2023/04/12 03:47:46;;;;;;;3.33;1.83;;;6.20;1.00;;;;;;4993675;28;20217;-64
2023/04/12 03:50:13;;;;;;;6.73;2.10;;;6.30;1.00;;;;;;4981829;28;20264;-64
2023/04/12 03:52:40;;;;;;;4.47;2.13;;;6.20;1.00;;;;;;5008417;28;20205;-64
2023/04/12 03:55:07;;;;;;;7.97;2.00;;;6.20;1.00;;;;;;4976195;28;20205;-64
2023/04/12 03:57:34;;;;;;;5.33;1.97;;;6.10;1.00;;;;;;4990284;28;20848;-64
2023/04/12 04:00:03;;;;;;;3.20;1.80;;;6.10;1.00;;;;;;5005269;28;20221;-64
2023/04/12 04:02:30;;;;;;;4.30;2.00;;;6.00;1.00;;;;;;4992195;28;20613;-64
2023/04/12 04:04:57;;;;;;;3.63;1.80;;;5.90;1.00;;;;;;4998469;28;20879;-64
2023/04/12 04:07:24;;;;;;;3.90;2.00;;;5.90;1.00;;;;;;4997729;28;20231;-64
2023/04/12 04:09:51;;;;;;;2.63;1.90;;;5.90;1.00;;;;;;4974407;28;20622;-64
2023/04/12 04:12:18;;;;;;;3.67;2.17;;;5.80;1.00;;;;;;5002661;28;20592;-64
2023/04/12 04:14:45;;;;;;;5.10;1.87;;;5.80;1.00;;;;;;5019330;28;20649;-64
2023/04/12 04:17:13;;;;;;;7.90;2.30;;;6.10;1.00;;;;;;5005305;28;20413;-64
2023/04/12 04:19:40;;;;;;;3.03;2.10;;;5.70;1.00;;;;;;5006989;28;20239;-64
2023/04/12 04:22:08;;;;;;;4.03;2.30;;;5.70;1.00;;;;;;4984508;28;20601;-64
2023/04/12 04:24:37;;;;;;;4.00;2.27;;;5.70;1.00;;;;;;4976954;28;20218;-64
2023/04/12 04:27:05;;;;;;;7.43;2.50;;;5.60;1.00;;;;;;4993096;28;20205;-64
2023/04/12 04:29:32;;;;;;;3.50;2.30;;;5.60;4.30;;;;;;5018542;28;20199;-63
2023/04/12 04:31:59;;;;;;;3.83;2.13;;;5.60;5.40;;;;;;5016612;28;20273;-64
2023/04/12 04:34:28;;;;;;;12.00;2.80;;;5.50;5.30;;;;;;5013350;28;20853;-64
2023/04/12 04:36:56;;;;;;;2.70;2.03;;;5.50;7.00;;;;;;4971167;28;20212;-64
2023/04/12 04:39:22;;;;;;;5.23;2.33;;;5.50;9.10;;;;;;4973433;28;20870;-64
2023/04/12 04:41:53;;;;;;;10.13;2.80;;;5.60;10.20;;;;;;5014498;28;24380;-64
2023/04/12 04:44:21;;;;;;;10.40;2.53;;;5.50;11.90;;;;;;4990408;28;20226;-64
2023/04/12 04:46:48;;;;;;;4.63;2.63;;;5.50;13.20;;;;;;5017811;28;20212;-64
2023/04/12 04:49:15;;;;;;;5.90;2.47;;;5.50;13.30;;;;;;5008655;28;20221;-63
2023/04/12 04:51:43;;;;;;;5.37;2.27;;;5.50;9.70;;;;;;4993722;28;20653;-64
2023/04/12 04:54:12;;;;;;;4.83;2.30;;;5.60;9.30;;;;;;4988990;28;20237;-64
2023/04/12 04:56:39;;;;;;;5.40;2.20;;;5.60;11.80;;;;;;4990476;28;21586;-64
2023/04/12 04:59:06;;;;;;;6.73;2.57;;;5.60;10.20;;;;;;4997638;28;20214;-64
2023/04/12 05:01:35;;;;;;;7.33;2.77;;;5.60;14.00;;;;;;5013322;28;20235;-63
2023/04/12 05:04:02;;;;;;;6.93;2.37;;;5.70;14.20;;;;;;5011905;28;20798;-64
2023/04/12 05:06:28;;;;;;;5.83;2.40;;;5.70;13.10;;;;;;5001078;28;20247;-64
2023/04/12 05:08:57;;;;;;;7.73;2.70;;;5.80;11.30;;;;;;4979381;28;20215;-64
2023/04/12 05:11:24;;;;;;;11.93;2.97;;;5.80;10.00;;;;;;4979521;28;20230;-64
2023/04/12 05:13:51;;;;;;;4.53;2.53;;;5.90;6.50;;;;;;5003583;28;20225;-64
2023/04/12 05:16:18;;;;;;;7.00;3.20;;;5.90;2.40;;;;;;5013556;28;20229;-63
2023/04/12 05:18:45;;;;;;;4.77;2.53;;;6.00;1.10;;;;;;5021474;28;20581;-64
2023/04/12 05:21:12;;;;;;;5.10;2.47;;;6.10;1.00;;;;;;5000606;28;20391;-64
2023/04/12 05:23:43;;;;;;;6.13;2.50;;;6.10;1.00;;;;;;5014982;28;20205;-64
2023/04/12 05:26:11;;;;;;;5.37;2.37;;;6.10;1.00;;;;;;4988323;28;20995;-65
2023/04/12 05:28:38;;;;;;;3.40;2.40;;;6.20;1.00;;;;;;5005363;28;20724;-64
2023/04/12 05:31:06;;;;;;;5.33;2.30;;;6.20;1.00;;;;;;5015876;28;20208;-64
2023/04/12 05:33:33;;;;;;;6.77;2.43;;;6.20;1.00;;;;;;5024269;28;20206;-64
2023/04/12 05:36:00;;;;;;;8.13;2.80;;;6.20;1.00;;;;;;5009414;28;20422;-64
2023/04/12 05:38:27;;;;;;;7.33;2.90;;;6.20;1.00;;;;;;5018451;28;20293;-64
2023/04/12 05:40:54;;;;;;;4.20;2.43;;;6.30;1.00;;;;;;4974954;28;20236;-64
2023/04/12 05:43:22;;;;;;;6.67;2.07;;;6.20;1.00;;;;;;5012178;28;20216;-64
2023/04/12 05:45:51;;;;;;;6.20;2.53;;;6.30;1.00;;;;;;5012369;28;20588;-64
2023/04/12 05:48:18;;;;;;;6.20;2.43;;;6.30;1.00;;;;;;5022457;28;20217;-64
2023/04/12 05:50:51;;;;;;;4.23;2.50;;;6.40;1.00;;;;;;5025832;28;20232;-64
2023/04/12 05:53:18;;;;;;;6.63;2.20;;;6.40;1.00;;;;;;5010940;28;21357;-64
2023/04/12 05:55:45;;;;;;;10.73;2.27;;;6.50;1.00;;;;;;4993146;28;20206;-64
2023/04/12 05:58:12;;;;;;;4.67;2.13;;;6.50;1.00;;;;;;5004306;28;20544;-64
2023/04/12 06:00:41;;;;;;;4.47;2.60;;;6.50;1.00;;;;;;4998146;28;20319;-64
2023/04/12 06:03:09;;;;;;;6.33;2.37;;;6.50;1.00;;;;;;5019417;28;20198;-64
2023/04/12 06:05:36;;;;;;;6.93;2.57;;;6.60;1.00;;;;;;5020332;28;20249;-64
2023/04/12 06:08:04;;;;;;;9.87;2.87;;;6.60;1.00;;;;;;4970765;28;20221;-64
2023/04/12 06:10:31;;;;;;;7.63;2.33;;;6.70;1.00;;;;;;5009631;28;20225;-64
2023/04/12 06:12:58;;;;;;;4.40;2.23;;;6.70;1.00;;;;;;4991861;28;20216;-64
2023/04/12 06:15:25;;;;;;;8.63;2.70;;;6.70;1.00;;;;;;5019453;28;20224;-65
2023/04/12 06:17:53;;;;;;;5.97;2.50;;;6.80;1.00;;;;;;5024073;28;20743;-64
2023/04/12 06:20:20;;;;;;;3.43;2.20;;;6.80;1.00;;;;;;5025012;28;20239;-64
2023/04/12 06:22:47;;;;;;;5.83;2.73;;;6.80;1.00;;;;;;5023605;28;20205;-64
2023/04/12 06:25:15;;;;;;;8.07;2.80;;;6.80;1.00;;;;;;5017831;28;20198;-64
2023/04/12 06:27:42;;;;;;;4.73;2.40;;;6.80;1.00;;;;;;4980590;28;20212;-64
2023/04/12 06:30:10;;;;;;;6.00;2.40;;;6.80;1.00;;;;;;5018054;28;20231;-64
2023/04/12 06:32:37;;;;;;;5.47;2.00;;;6.90;1.00;;;;;;5010864;28;21033;-64
2023/04/12 06:35:06;;;;;;;3.10;2.00;;;7.00;1.00;;;;;;5026290;28;20213;-64
2023/04/12 06:37:33;;;;;;;7.80;2.37;;;7.00;1.00;;;;;;5026170;28;20205;-64
2023/04/12 06:40:00;;;;;;;6.00;2.37;;;7.10;1.00;;;;;;5022689;28;20204;-64
2023/04/12 06:42:27;;;;;;;7.63;2.47;;;7.10;1.00;;;;;;5019523;28;20208;-64
2023/04/12 06:44:54;;;;;;;3.47;2.00;;;7.10;1.00;;;;;;4998147;28;20296;-64
2023/04/12 06:47:22;;;;;;;5.40;2.47;;;7.20;1.00;;;;;;5023590;28;20205;-64
2023/04/12 06:49:50;;;;;;;4.57;2.17;;;7.30;1.00;;;;;;5023792;28;20702;-64
2023/04/12 06:52:19;;;;;;;5.00;1.83;;;7.30;1.00;;;;;;5025531;28;20212;-64
2023/04/12 06:54:46;;;;;;;2.47;1.97;;;7.40;1.00;;;;;;5018067;28;20949;-64
2023/04/12 06:57:12;;;;;;;4.00;1.77;;;7.40;1.00;;;;;;5033358;28;20197;-64
2023/04/12 06:59:40;;;;;;;6.13;2.10;;;7.40;1.00;;;;;;4978171;28;20845;-64
2023/04/12 07:02:07;;;;;;;7.90;1.50;;;7.50;1.00;;;;;;5018513;28;20233;-64
2023/04/12 07:04:34;;;;;;;4.00;1.80;;;7.50;1.00;;;;;;5005622;28;20221;-64
2023/04/12 07:07:01;;;;;;;4.70;2.10;;;7.60;1.00;;;;;;5026998;28;20232;-64
2023/04/12 07:09:31;;;;;;;6.67;2.07;;;7.70;1.00;;;;;;5017917;28;20198;-64
2023/04/12 07:11:58;;;;;;;5.97;2.00;;;7.70;1.00;;;;;;5028772;28;20202;-64
2023/04/12 07:14:25;;;;;;;6.10;1.77;;;7.80;1.00;;;;;;4984152;28;20221;-65
2023/04/12 07:16:52;;;;;;;2.67;2.00;;;7.90;1.00;;;;;;5002150;28;20217;-64
2023/04/12 07:19:19;;;;;;;5.00;1.97;;;7.90;1.00;;;;;;5012467;28;20217;-64
2023/04/12 07:21:45;;;;;;;8.10;2.10;;;8.00;1.00;;;;;;5009118;28;20943;-64
2023/04/12 07:24:12;;;;;;;5.97;1.90;;;8.00;1.00;;;;;;5006282;28;20531;-64
2023/04/12 07:26:41;;;;;;;5.17;1.80;;;8.10;1.00;;;;;;5015336;28;20201;-64
2023/04/12 07:29:07;;;;;;;5.33;1.63;;;8.10;1.00;;;;;;4992630;28;20412;-64
2023/04/12 07:31:34;;;;;;;5.90;2.70;;;8.10;1.00;;;;;;4991007;28;20216;-64
2023/04/12 07:34:01;;;;;;;4.87;2.00;;;8.10;1.00;;;;;;5022589;28;20197;-64
2023/04/12 07:36:28;;;;;;;6.90;2.00;;;8.10;1.00;;;;;;5008998;28;20296;-64
2023/04/12 07:38:55;;;;;;;3.93;2.00;;;8.10;1.00;;;;;;5023977;28;20476;-64
2023/04/12 07:41:22;;;;;;;4.30;2.17;;;8.10;1.00;;;;;;5015016;28;20362;-64
2023/04/12 07:43:51;;;;;;;5.40;2.17;;;8.10;1.00;;;;;;5022508;28;20426;-64
2023/04/12 07:46:17;;;;;;;6.63;2.03;;;8.20;1.00;;;;;;4980817;28;20217;-64
2023/04/12 07:48:45;;;;;;;7.47;2.53;;;8.30;1.00;;;;;;5025809;28;20219;-64
2023/04/12 07:51:12;;;;;;;4.43;1.83;;;8.30;1.00;;;;;;5008375;28;20508;-65
2023/04/12 07:53:40;;;;;;;2.93;1.87;;;8.50;1.00;;;;;;5024792;28;20225;-64
2023/04/12 07:56:08;;;;;;;5.00;1.80;;;8.50;1.00;;;;;;5007018;28;20405;-64
2023/04/12 07:58:35;;;;;;;9.17;1.90;;;8.60;1.00;;;;;;5029579;28;20201;-64
2023/04/12 08:01:03;;;;;;;5.73;2.10;;;8.70;1.00;;;;;;4983025;28;20504;-64
2023/04/12 08:03:30;;;;;;;4.97;2.10;;;8.70;1.00;;;;;;5023234;28;20368;-64
2023/04/12 08:05:57;;;;;;;6.60;2.00;;;8.70;1.00;;;;;;5016551;28;20225;-64
2023/04/12 08:08:24;;;;;;;7.30;2.07;;;8.70;1.00;;;;;;5016544;28;20698;-64
2023/04/12 08:10:52;;;;;;;4.10;2.00;;;8.80;1.00;;;;;;5024099;28;20204;-64
2023/04/12 08:13:19;;;;;;;6.30;2.30;;;8.70;1.00;;;;;;5017583;28;20204;-64
2023/04/12 08:15:46;;;;;;;4.63;2.20;;;8.70;1.00;;;;;;5014864;28;20827;-64
2023/04/12 08:18:15;;;;;;;5.10;2.47;;;8.70;1.00;;;;;;4996212;28;20335;-64
2023/04/12 08:20:43;;;;;;;5.00;1.97;;;8.70;1.00;;;;;;5024403;28;20854;-65
2023/04/12 08:23:10;;;;;;;6.97;2.63;;;8.70;1.00;;;;;;5007703;28;20193;-64
2023/04/12 08:25:37;;;;;;;4.90;2.43;;;8.70;1.00;;;;;;5024660;28;20252;-64
2023/04/12 08:28:06;;;;;;;5.03;2.17;;;8.70;1.00;;;;;;5002581;28;20204;-64
2023/04/12 08:30:33;;;;;;;9.70;2.47;;;8.70;1.00;;;;;;5010192;28;20225;-65
2023/04/12 08:33:00;;;;;;;3.58;2.28;;;8.70;1.00;;;;;;4985831;28;20236;-64
2023/04/12 08:35:28;;;;;;;7.33;2.60;;;8.80;1.00;;;;;;5019313;28;20202;-64
2023/04/12 08:37:55;;;;;;;5.93;2.83;;;8.80;1.00;;;;;;5018688;28;20551;-64
2023/04/12 08:40:22;;;;;;;7.20;2.37;;;8.80;1.00;;;;;;5016250;28;20434;-65
2023/04/12 08:42:52;;;;;;;3.97;2.40;;;8.80;1.00;;;;;;5007905;28;20232;-64
2023/04/12 08:45:22;;;;;;;7.50;2.43;;;8.80;1.00;;;;;;4997376;28;20292;-65
2023/04/12 08:47:49;;;;;;;5.43;2.03;;;8.70;1.00;;;;;;4968364;28;20225;-64
2023/04/12 08:50:16;;;;;;;7.97;2.38;;;8.70;10.90;;;;;;5002870;28;20198;-65
2023/04/12 08:52:47;;;;;;;8.27;2.50;;;8.70;20.20;;;;;;5019972;28;20488;-64
2023/04/12 08:55:14;;;;;;;6.13;2.65;;;8.70;26.50;;;;;;5004894;28;20534;-64
2023/04/12 08:57:42;;;;;;;4.18;2.30;;;8.70;28.40;;;;;;5015790;28;20198;-65
2023/04/12 09:00:10;;;;;;;6.97;2.57;;;8.70;40.90;;;;;;5012703;28;20263;-65
2023/04/12 09:02:37;;;;;;;4.50;2.27;;;8.70;42.10;;;;;;4986025;28;20226;-65
2023/04/12 09:05:06;;;;;;;4.60;2.00;;;8.70;47.50;;;;;;5003741;28;20331;-65
2023/04/12 09:07:33;;;;;;;3.85;2.25;;;8.70;54.40;;;;;;5017532;28;20189;-65
2023/04/12 09:10:03;;;;;;;6.20;2.33;;;8.80;59.30;;;;;;5004964;28;20399;-65
2023/04/12 09:12:30;;;;;;;4.30;2.30;;;8.80;70.50;;;;;;5015659;28;20202;-65
2023/04/12 09:15:08;;;;;;;4.53;2.70;;;8.80;70.40;;;;;;5001025;28;20324;-65
2023/04/12 09:17:37;;;;;;;4.17;2.00;;;8.80;72.60;;;;;;5014934;28;20568;-65
2023/04/12 09:20:24;;;;;;;4.73;1.80;;;8.80;79.00;;;;;;4980926;28;20206;-65
2023/04/12 09:22:53;;;;;;;3.83;2.00;;;8.80;76.00;;;;;;5015471;28;20334;-65
2023/04/12 09:25:39;;;;;;;5.00;1.80;;;8.80;76.80;;;;;;5007780;28;20201;-65
2023/04/12 09:28:22;;;;;;;3.67;1.97;;;8.80;80.80;;;;;;5018598;28;21001;-65
2023/04/12 09:30:51;;;;;;;2.80;1.90;;;8.90;90.20;;;;;;5004398;28;20206;-65
2023/04/12 09:33:19;;;;;;;8.03;2.27;;;8.90;89.20;;;;;;4989510;28;20229;-65
2023/04/12 09:35:46;;;;;;;12.37;2.20;;;8.90;86.60;;;;;;5003210;28;20768;-65
2023/04/12 09:38:14;;;;;;;4.73;2.10;;;8.90;86.10;;;;;;5017919;28;20562;-65
2023/04/12 09:40:42;;;;;;;4.77;2.07;;;9.00;90.60;;;;;;5006384;28;20197;-65
2023/04/12 09:43:09;;;;;;;4.27;1.90;;;9.00;91.20;;;;;;5016522;28;20229;-65
2023/04/12 09:45:38;;;;;;;2.33;1.93;;;9.00;91.70;;;;;;5018381;28;20718;-65
2023/04/12 09:48:06;;;;;;;5.00;2.17;;;9.00;93.20;;;;;;5010666;28;20959;-65
2023/04/12 09:50:34;;;;;;;4.22;1.95;;;9.00;92.90;;;;;;4980134;28;20833;-65
2023/04/12 09:53:02;;;;;;;3.95;2.38;;;9.00;93.50;;;;;;5013789;28;20704;-66
2023/04/12 09:55:31;;;;;;;2.45;1.75;;;9.00;92.90;;;;;;5008365;28;20205;-66
2023/04/12 09:58:03;;;;;;;6.25;2.50;;;9.00;93.80;;;;;;5017481;28;20917;-66
2023/04/12 10:00:33;;;;;;;6.80;2.63;;;9.00;95.80;;;;;;5020876;28;20192;-65
2023/04/12 10:03:00;;;;;;;3.50;1.95;;;9.00;95.40;;;;;;5006878;28;20236;-65
2023/04/12 10:05:27;;;;;;;5.07;2.60;;;9.00;96.10;;;;;;4990293;28;20224;-65
2023/04/12 10:07:55;;;;;;;3.93;2.33;;;8.90;97.00;;;;;;5012977;28;20777;-65
2023/04/12 10:10:23;;;;;;;5.03;2.33;;;9.00;97.60;;;;;;5016909;28;20201;-66
2023/04/12 10:12:50;;;;;;;2.72;2.30;;;9.00;98.60;;;;;;5002838;28;20212;-66
2023/04/12 10:15:20;;;;;;;3.00;2.07;;;9.00;99.10;;;;;;5020570;28;20197;-66
2023/04/12 10:17:49;;;;;;;5.70;2.15;;;9.00;99.90;;;;;;5007977;28;20206;-66
2023/04/12 10:20:17;;;;;;;2.53;2.10;;;9.00;99.90;;;;;;4986658;28;20572;-66
2023/04/12 10:22:46;;;;;;;4.40;2.43;;;9.00;99.90;;;;;;5018984;28;20226;-66
2023/04/12 10:25:14;;;;;;;3.87;2.20;;;9.00;99.90;;;;;;5013956;28;20193;-66
2023/04/12 10:27:42;;;;;;;10.07;2.85;;;9.00;99.90;;;;;;5009001;28;20210;-66
2023/04/12 10:30:27;;;;;;;6.93;2.30;;;9.00;99.90;;;;;;5018348;28;20224;-66
2023/04/12 10:33:26;;;;;;;7.37;2.03;;;9.00;99.90;;;;;;5002036;28;20726;-66
2023/04/12 10:35:59;;;;;;;2.45;2.05;;;9.00;99.90;;;;;;4936721;28;20228;-66
2023/04/12 10:38:30;;;;;;;5.53;2.40;;;9.00;99.90;;;;;;5017679;28;20297;-66
2023/04/12 10:41:15;;;;;;;3.35;2.20;;;9.00;99.90;;;;;;5013093;28;20599;-66
2023/04/12 10:43:42;;;;;;;4.87;2.20;;;9.00;99.90;;;;;;5001696;28;20294;-66
2023/04/12 10:46:50;;;;;;;6.03;2.60;;;9.00;99.90;;;;;;5021356;28;20406;-66
2023/04/12 10:49:17;;;;;;;4.33;2.27;;;9.00;99.90;;;;;;5024548;28;20201;-66
2023/04/12 10:52:13;;;;;;;2.85;2.10;;;9.10;99.90;;;;;;4989453;28;20209;-67
2023/04/12 10:54:40;;;;;;;5.00;1.77;;;9.10;99.90;;;;;;5019671;28;20577;-67
2023/04/12 10:57:07;;;;;;;3.63;2.33;;;9.10;99.90;;;;;;5018938;28;20334;-67
2023/04/12 10:59:55;;;;;;;5.22;2.00;;;9.10;99.90;;;;;;5007550;28;20225;-67
2023/04/12 11:02:23;;;;;;;3.03;2.03;;;9.10;99.90;;;;;;5010144;28;20645;-67
2023/04/12 11:05:17;;;;;;;3.97;2.10;;;9.10;99.90;;;;;;5014746;28;20209;-67
2023/04/12 11:07:45;;;;;;;2.20;2.00;;;9.10;99.90;;;;;;4977735;28;20710;-67
2023/04/12 11:10:16;;;;;;;4.53;2.10;;;9.10;99.90;;;;;;5019649;28;20412;-67
2023/04/12 11:12:49;;;;;;;7.10;1.90;;;9.00;99.90;;;;;;5019393;28;20336;-67
2023/04/12 11:15:16;;;;;;;3.65;2.15;;;9.20;99.90;;;;;;5007919;28;20202;-67
2023/04/12 11:17:54;;;;;;;2.70;1.65;;;9.00;99.90;;;;;;5014096;28;20275;-67
2023/04/12 11:20:21;;;;;;;3.50;2.20;;;9.00;99.90;;;;;;5018329;28;20212;-67
2023/04/12 11:22:49;;;;;;;2.90;2.00;;;9.00;99.90;;;;;;4988190;28;20236;-67
2023/04/12 11:25:17;;;;;;;2.40;1.95;;;9.10;99.90;;;;;;5026002;28;20288;-67
2023/04/12 11:27:50;;;;;;;1.80;1.70;;;9.10;99.90;;;;;;5024216;28;20208;-67
2023/04/12 11:30:18;;;;;;;2.75;1.90;;;9.10;99.90;;;;;;5008157;28;20752;-67
2023/04/12 11:32:47;;;;;;;3.78;2.33;;;9.20;99.90;;;;;;5018417;28;20876;-67
2023/04/12 11:35:15;;;;;;;3.08;1.77;;;9.20;99.90;;;;;;5018313;28;21357;-67
2023/04/12 11:37:42;;;;;;;2.25;1.88;;;9.20;99.90;;;;;;4994295;28;20613;-67
2023/04/12 11:40:09;;;;;;;1.90;1.70;;;9.20;99.90;;;;;;5002375;28;20732;-67
2023/04/12 11:42:39;;;;;;;2.03;1.73;;;9.30;99.90;;;;;;5012526;28;20230;-67
2023/04/12 11:45:07;;;;;;;3.70;1.83;;;9.30;99.90;;;;;;5008511;28;20302;-67
2023/04/12 11:47:34;;;;;;;3.53;1.80;;;9.40;99.90;;;;;;5005738;28;20209;-67
2023/04/12 11:50:02;;;;;;;2.30;2.10;;;9.40;99.90;;;;;;5004615;28;20229;-67
2023/04/12 11:52:31;;;;;;;3.65;1.90;;;9.50;99.90;;;;;;5010180;28;20621;-67
2023/04/12 11:55:03;;;;;;;1.90;1.70;;;9.50;99.90;;;;;;4990632;28;20221;-68
2023/04/12 11:57:30;;;;;;;6.80;1.70;;;9.60;99.90;;;;;;5024628;28;20231;-67
2023/04/12 11:59:58;;;;;;;1.65;1.55;;;9.60;99.90;;;;;;5018399;28;20440;-67
2023/04/12 12:02:26;;;;;;;1.65;1.55;;;9.50;99.90;;;;;;5004555;28;20229;-67
2023/04/12 12:04:54;;;;;;;3.30;1.92;;;9.50;99.90;;;;;;4994998;28;20229;-68
2023/04/12 12:07:23;;;;;;;2.00;1.75;;;9.50;99.90;;;;;;5020275;28;20234;-68
2023/04/12 12:09:50;;;;;;;3.22;1.90;;;9.60;99.90;;;;;;4973246;28;20206;-67
2023/04/12 12:12:18;;;;;;;2.15;1.80;;;9.70;99.90;;;;;;5015972;28;20197;-68
2023/04/12 12:14:46;;;;;;;2.55;1.63;;;9.60;99.90;;;;;;5010108;28;20194;-68
2023/04/12 12:17:14;;;;;;;3.20;2.05;;;9.60;99.90;;;;;;5004294;28;20430;-68
2023/04/12 12:19:42;;;;;;;3.28;1.90;;;9.60;99.90;;;;;;4986380;28;20205;-68
2023/04/12 12:22:17;;;;;;;2.42;2.00;;;9.60;99.90;;;;;;5016931;28;20225;-67
2023/04/12 12:24:52;;;;;;;1.75;1.65;;;9.50;99.90;;;;;;4970964;28;20886;-68
2023/04/12 12:27:21;;;;;;;2.95;1.85;;;9.50;99.90;;;;;;5020570;28;20988;-68
2023/04/12 12:29:53;;;;;;;2.60;1.50;;;9.50;99.90;;;;;;5002570;28;20849;-68
2023/04/12 12:32:22;;;;;;;2.80;1.67;;;9.40;99.90;;;;;;5000639;28;20205;-68
2023/04/12 12:34:56;;;;;;;2.30;1.90;;;9.50;99.90;;;;;;4987533;28;20698;-68
2023/04/12 12:37:25;;;;;;;4.28;2.10;;;9.40;99.90;;;;;;4972839;28;21353;-68
2023/04/12 12:40:10;;;;;;;4.28;2.15;;;9.40;99.90;;;;;;4994744;28;20225;-68
2023/04/12 12:42:44;;;;;;;2.20;2.00;;;9.40;99.90;;;;;;5012938;28;20577;-67
2023/04/12 12:45:11;;;;;;;2.22;1.80;;;9.40;99.90;;;;;;4986634;28;20723;-68
2023/04/12 12:47:50;;;;;;;1.90;1.80;;;9.40;99.90;;;;;;5004999;28;20230;-68
2023/04/12 12:50:17;;;;;;;2.10;1.83;;;9.40;99.90;;;;;;5000952;28;20554;-68
2023/04/12 12:52:46;;;;;;;3.03;1.92;;;9.40;99.90;;;;;;4993819;28;20222;-68
2023/04/12 12:55:14;;;;;;;4.75;1.90;;;9.40;99.90;;;;;;4994782;28;20850;-68
2023/04/12 12:57:43;;;;;;;3.83;1.92;;;9.40;99.90;;;;;;4981181;28;20846;-68
2023/04/12 13:00:12;;;;;;;4.30;1.90;;;9.40;99.90;;;;;;5003034;28;20677;-68
2023/04/12 13:02:39;;;;;;;2.90;2.05;;;9.40;99.90;;;;;;4996309;28;20524;-68
2023/04/12 13:05:07;;;;;;;2.72;1.98;;;9.30;99.90;;;;;;5005914;28;20210;-68
2023/04/12 13:07:34;;;;;;;4.80;2.30;;;9.40;99.90;;;;;;5001997;28;20236;-68
2023/04/12 13:10:01;;;;;;;2.30;2.08;;;9.50;99.90;;;;;;5008800;28;20228;-68
2023/04/12 13:12:29;;;;;;;1.90;1.77;;;9.50;99.90;;;;;;4982819;28;20702;-68